This is the latest recevied weather packets stored in our database for station/object N8SDR. If no packets are shown the sender has not sent any weather packets the latest 10 day(s).
| Time | Temp. | Humidity | Pressure | Rain* | Wind** | Luminosity | Snow |
|---|---|---|---|---|---|---|---|
| 1778089198 | 15.56° C | 58% | 1009.8 hPa | 0 mm | - | 754 W/m² | - |
| 1778088896 | 15° C | 57% | 1010 hPa | 0 mm | - | 521 W/m² | - |
| 1778088593 | 15° C | 58% | 1009.9 hPa | 0 mm | - | 760 W/m² | - |
| 1778088290 | 15° C | 58% | 1009.9 hPa | 0 mm | - | 773 W/m² | - |
| 1778087986 | 15° C | 60% | 1009.8 hPa | 0 mm | - | 645 W/m² | - |
| 1778087684 | 15° C | 59% | 1010 hPa | 0 mm | - | 607 W/m² | - |
| 1778087381 | 15.56° C | 60% | 1009.9 hPa | 0 mm | - | 684 W/m² | - |
| 1778087077 | 15° C | 60% | 1009.9 hPa | 0 mm | - | 851 W/m² | - |
| 1778086771 | 15° C | 59% | 1010.1 hPa | 0 mm | - | 947 W/m² | - |
| 1778086468 | 14.44° C | 58% | 1010 hPa | 0 mm | - | 574 W/m² | - |
| 1778086158 | 14.44° C | 59% | 1010.1 hPa | 0 mm | - | 557 W/m² | - |
| 1778085855 | 14.44° C | 64% | 1010.1 hPa | 0 mm | - | 799 W/m² | - |
| 1778085548 | 13.89° C | 62% | 1009.9 hPa | 0 mm | - | 815 W/m² | - |
| 1778085242 | 13.89° C | 64% | 1010.1 hPa | 0 mm | - | 763 W/m² | - |
| 1778084937 | 13.33° C | 64% | 1010.1 hPa | 0 mm | - | 324 W/m² | - |
| 1778084635 | 13.33° C | 65% | 1009.9 hPa | 0 mm | - | 487 W/m² | - |
| 1778084333 | 13.89° C | 65% | 1010 hPa | 0 mm | - | 1050 W/m² | - |
| 1778084030 | 13.89° C | 67% | 1010 hPa | 0 mm | - | 490 W/m² | - |
| 1778083727 | 13.89° C | 68% | 1009.9 hPa | 0 mm | - | 666 W/m² | - |
| 1778083424 | 13.33° C | 67% | 1010 hPa | 0 mm | - | 526 W/m² | - |
| 1778083123 | 13.33° C | 67% | 1009.9 hPa | 0 mm | - | 555 W/m² | - |
| 1778082819 | 13.33° C | 65% | 1010 hPa | 0 mm | - | 763 W/m² | - |
| 1778081697 | 12.78° C | 67% | 1009.8 hPa | 0 mm | - | 953 W/m² | - |
| 1778081394 | 12.22° C | 68% | 1009.9 hPa | 0 mm | - | 602 W/m² | - |
| 1778081091 | 12.78° C | 67% | 1010.2 hPa | 0 mm | - | 827 W/m² | - |
* Rain latest hour (hover to see other rain measurements)
** Current wind speed in m/s (hover to see current wind gust speed)